Terminal Aerodrome Forecast
Issued by NWS Binghamton, NY

Home | Current Version | Previous Version | Text Only | Print | Product List | Glossary On
Versions: 1 2 3 4 5 6 7 8 9 10 11 12 13 14 15 16 17 18 19 20 21 22 23
244
FTUS41 KBGM 110526
TAFBGM
TAF
KBGM 110526Z 1106/1206 29012G20KT P6SM -SHSN BKN035 BKN100
     FM111200 30012G20KT 5SM -SHSN BLSN OVC025
     FM111800 31015G25KT P6SM -SHSN BKN035
     FM120000 29011KT P6SM -SHSN BKN050=

USA.gov is the U.S. government's official web portal to all federal, state and local government web resources and services.